Time;durP1;ratioP1;P1;durP2;ratioP2;P2;SDS_P1;SDS_P2;PMS_P1;PMS_P2;Temp;Humidity;BMP_temperature;BMP_pressure;BME280_temperature;BME280_humidity;BME280_pressure;Samples;Min_cycle;Max_cycle;Signal;HPM_P1;HPM_P2
2023/08/24 00:00:02;;;;;;;6.53;3.80;;;;;;;;;;5073125;28;20200;-89
2023/08/24 00:02:30;;;;;;;2.93;2.63;;;;;;;;;;5073470;28;20205;-85
2023/08/24 00:05:01;;;;;;;1.80;1.70;;;;;;;;;;5073303;28;20248;-86
2023/08/24 00:07:30;;;;;;;1.37;1.37;;;;;;;;;;5073111;28;20201;-85
2023/08/24 00:09:58;;;;;;;1.57;1.47;;;;;;;;;;5072661;28;20215;-85
2023/08/24 00:12:27;;;;;;;1.63;1.57;;;;;;;;;;5073214;28;20243;-85
2023/08/24 00:14:55;;;;;;;1.77;1.53;;;;;;;;;;5073269;28;20205;-85
2023/08/24 00:17:24;;;;;;;0.60;0.60;;;;;;;;;;5072767;28;20212;-85
2023/08/24 00:19:53;;;;;;;1.40;0.67;;;;;;;;;;5072897;28;20285;-85
2023/08/24 00:22:23;;;;;;;1.70;1.60;;;;;;;;;;5072935;28;20231;-85
2023/08/24 00:24:51;;;;;;;0.60;0.60;;;;;;;;;;5072734;28;20209;-85
2023/08/24 00:27:20;;;;;;;3.90;2.50;;;;;;;;;;5072609;28;20247;-85
2023/08/24 00:29:48;;;;;;;1.43;1.37;;;;;;;;;;5072170;28;20241;-84
2023/08/24 00:32:19;;;;;;;2.07;1.17;;;;;;;;;;5072490;28;20209;-85
2023/08/24 00:34:48;;;;;;;2.90;2.23;;;;;;;;;;5071672;28;20203;-85
2023/08/24 00:37:38;;;;;;;2.73;2.30;;;;;;;;;;5072596;28;20202;-85
2023/08/24 00:40:09;;;;;;;1.20;1.20;;;;;;;;;;5072432;28;20190;-84
2023/08/24 00:42:39;;;;;;;1.07;1.07;;;;;;;;;;5072310;28;20209;-85
2023/08/24 00:45:09;;;;;;;5.53;1.80;;;;;;;;;;5072594;28;20293;-85
2023/08/24 00:47:38;;;;;;;5.87;2.03;;;;;;;;;;5072298;28;20287;-86
2023/08/24 00:50:07;;;;;;;3.20;2.00;;;;;;;;;;5072287;28;20271;-85
2023/08/24 00:52:39;;;;;;;1.20;1.20;;;;;;;;;;5072200;28;20221;-85
2023/08/24 00:55:09;;;;;;;0.73;0.60;;;;;;;;;;5072199;28;20198;-85
2023/08/24 00:57:39;;;;;;;0.40;0.40;;;;;;;;;;5072403;28;20230;-85
2023/08/24 01:00:10;;;;;;;0.30;0.30;;;;;;;;;;5071581;28;20255;-85
2023/08/24 01:02:38;;;;;;;0.63;0.63;;;;;;;;;;5071952;28;20198;-85
2023/08/24 01:05:07;;;;;;;1.27;1.17;;;;;;;;;;5072466;28;20210;-85
2023/08/24 01:07:37;;;;;;;1.77;1.67;;;;;;;;;;5072544;28;20208;-85
2023/08/24 01:10:07;;;;;;;1.47;1.07;;;;;;;;;;5071549;28;20229;-85
2023/08/24 01:12:43;;;;;;;5.67;1.37;;;;;;;;;;5071522;28;20212;-85
2023/08/24 01:15:15;;;;;;;1.27;1.17;;;;;;;;;;5071644;28;20270;-85
2023/08/24 01:17:44;;;;;;;1.27;1.27;;;;;;;;;;5072356;28;20209;-85
2023/08/24 01:20:14;;;;;;;2.80;2.60;;;;;;;;;;5071160;28;20228;-85
2023/08/24 01:22:46;;;;;;;1.97;1.83;;;;;;;;;;5071875;28;20223;-85
2023/08/24 01:25:18;;;;;;;6.23;1.47;;;;;;;;;;5071757;28;20203;-85
2023/08/24 01:27:49;;;;;;;2.60;2.37;;;;;;;;;;5071412;28;20212;-85
2023/08/24 01:30:19;;;;;;;1.17;1.07;;;;;;;;;;5071485;28;20236;-86
2023/08/24 01:32:48;;;;;;;2.47;1.90;;;;;;;;;;5072288;28;20208;-85
2023/08/24 01:35:16;;;;;;;2.70;2.50;;;;;;;;;;5071792;28;20198;-85
2023/08/24 01:37:45;;;;;;;1.27;1.20;;;;;;;;;;5070895;28;20194;-86
2023/08/24 01:40:16;;;;;;;4.37;1.67;;;;;;;;;;5071779;28;20284;-86
2023/08/24 01:42:47;;;;;;;2.40;2.20;;;;;;;;;;5071968;28;20201;-85
2023/08/24 01:45:19;;;;;;;1.07;1.00;;;;;;;;;;5071723;28;20255;-86
2023/08/24 01:47:49;;;;;;;4.50;2.50;;;;;;;;;;5071249;28;20233;-86
2023/08/24 01:50:18;;;;;;;1.00;1.00;;;;;;;;;;5070883;28;20200;-85
2023/08/24 01:52:47;;;;;;;0.83;0.83;;;;;;;;;;5071759;28;20230;-90
2023/08/24 01:55:16;;;;;;;2.60;2.40;;;;;;;;;;5071303;28;20190;-88
2023/08/24 01:57:44;;;;;;;2.07;1.67;;;;;;;;;;5072473;28;20205;-89
2023/08/24 02:00:13;;;;;;;1.40;1.13;;;;;;;;;;5071738;28;20201;-88
2023/08/24 02:02:43;;;;;;;1.67;1.47;;;;;;;;;;5071732;28;20202;-89
2023/08/24 02:05:12;;;;;;;1.37;0.93;;;;;;;;;;5071549;28;20207;-90
2023/08/24 02:07:41;;;;;;;1.70;1.43;;;;;;;;;;5071430;28;20195;-85
2023/08/24 02:10:10;;;;;;;1.00;1.00;;;;;;;;;;5071272;28;20197;-85
2023/08/24 02:12:38;;;;;;;1.23;1.13;;;;;;;;;;5070862;28;20214;-85
2023/08/24 02:15:07;;;;;;;1.60;1.37;;;;;;;;;;5071303;28;20202;-85
2023/08/24 02:17:36;;;;;;;2.77;1.70;;;;;;;;;;5071384;28;20201;-85
2023/08/24 02:20:08;;;;;;;1.23;1.20;;;;;;;;;;5070881;28;20275;-85
2023/08/24 02:22:36;;;;;;;0.80;0.80;;;;;;;;;;5070723;28;20198;-85
2023/08/24 02:25:05;;;;;;;1.57;1.47;;;;;;;;;;5071189;28;20247;-85
2023/08/24 02:27:34;;;;;;;5.30;2.27;;;;;;;;;;5070889;28;20199;-89
2023/08/24 02:30:02;;;;;;;2.57;1.00;;;;;;;;;;5070791;28;20208;-86
2023/08/24 02:32:31;;;;;;;1.23;1.13;;;;;;;;;;5070714;28;20217;-85
2023/08/24 02:35:00;;;;;;;2.90;1.57;;;;;;;;;;5071069;28;20325;-85
2023/08/24 02:37:30;;;;;;;1.13;1.13;;;;;;;;;;5071231;28;20198;-85
2023/08/24 02:39:58;;;;;;;2.53;2.43;;;;;;;;;;5070287;28;20257;-85
2023/08/24 02:42:27;;;;;;;2.77;1.47;;;;;;;;;;5070862;28;20198;-85
2023/08/24 02:44:55;;;;;;;2.03;1.93;;;;;;;;;;5071372;28;20210;-85
2023/08/24 02:47:23;;;;;;;5.70;2.00;;;;;;;;;;5070460;28;20237;-85
2023/08/24 02:49:52;;;;;;;3.13;2.93;;;;;;;;;;5071011;28;20229;-85
2023/08/24 02:52:21;;;;;;;1.53;1.20;;;;;;;;;;5070761;28;20225;-85
2023/08/24 02:54:50;;;;;;;3.53;2.10;;;;;;;;;;5071283;28;20444;-84
2023/08/24 02:57:19;;;;;;;0.50;0.50;;;;;;;;;;5070375;28;20197;-85
2023/08/24 02:59:47;;;;;;;1.17;1.17;;;;;;;;;;5073596;28;20217;-85
2023/08/24 03:02:19;;;;;;;3.70;1.83;;;;;;;;;;5074081;28;20243;-85
2023/08/24 03:04:47;;;;;;;2.20;1.87;;;;;;;;;;5074127;28;20367;-85
2023/08/24 03:07:16;;;;;;;0.93;0.93;;;;;;;;;;5073938;28;20205;-85
2023/08/24 03:09:44;;;;;;;0.73;0.73;;;;;;;;;;5074054;28;20225;-85
2023/08/24 03:12:14;;;;;;;0.50;0.50;;;;;;;;;;5074356;28;20221;-85
2023/08/24 03:14:42;;;;;;;3.10;1.90;;;;;;;;;;5073655;28;20247;-89
2023/08/24 03:17:11;;;;;;;1.30;1.00;;;;;;;;;;5074323;28;20210;-85
2023/08/24 03:19:40;;;;;;;5.93;3.40;;;;;;;;;;5073920;28;20195;-85
2023/08/24 03:22:08;;;;;;;1.60;1.50;;;;;;;;;;5074082;28;20255;-85
2023/08/24 03:24:37;;;;;;;1.53;1.43;;;;;;;;;;5073577;28;20197;-89
2023/08/24 03:27:05;;;;;;;21.97;1.70;;;;;;;;;;5074668;28;20221;-90
2023/08/24 03:29:35;;;;;;;1.43;1.30;;;;;;;;;;5074250;28;20216;-89
2023/08/24 03:32:03;;;;;;;0.67;0.67;;;;;;;;;;5073627;28;20259;-89
2023/08/24 03:34:32;;;;;;;2.93;2.73;;;;;;;;;;5074004;28;20198;-85
2023/08/24 03:37:00;;;;;;;1.40;1.20;;;;;;;;;;5074008;28;20202;-86
2023/08/24 03:39:29;;;;;;;1.17;0.83;;;;;;;;;;5073472;28;20201;-84
2023/08/24 03:41:57;;;;;;;0.90;0.90;;;;;;;;;;5072829;28;20193;-85
2023/08/24 03:44:26;;;;;;;1.60;1.43;;;;;;;;;;5073434;28;20205;-85
2023/08/24 03:46:56;;;;;;;3.50;1.73;;;;;;;;;;5073650;28;20311;-85
2023/08/24 03:49:25;;;;;;;0.80;0.80;;;;;;;;;;5073391;28;20210;-85
2023/08/24 03:51:54;;;;;;;1.83;1.73;;;;;;;;;;5072947;28;20230;-85
2023/08/24 03:54:23;;;;;;;4.53;2.50;;;;;;;;;;5073168;28;20198;-85
2023/08/24 03:56:52;;;;;;;1.57;1.50;;;;;;;;;;5073320;28;20282;-85
2023/08/24 03:59:20;;;;;;;0.87;0.87;;;;;;;;;;5072850;28;20202;-85
2023/08/24 04:01:48;;;;;;;1.67;1.57;;;;;;;;;;5072609;28;20189;-85
2023/08/24 04:04:19;;;;;;;1.20;1.20;;;;;;;;;;5073400;28;20208;-88
2023/08/24 04:06:49;;;;;;;1.10;1.10;;;;;;;;;;5073531;28;20217;-89
2023/08/24 04:09:17;;;;;;;0.30;0.30;;;;;;;;;;5072599;28;20197;-85
2023/08/24 04:11:46;;;;;;;1.37;1.27;;;;;;;;;;5072939;28;20314;-86
2023/08/24 04:14:14;;;;;;;0.87;0.87;;;;;;;;;;5073318;28;20206;-85
2023/08/24 04:16:44;;;;;;;0.43;0.43;;;;;;;;;;5072633;28;20224;-85
2023/08/24 04:19:13;;;;;;;2.10;2.00;;;;;;;;;;5072770;28;20206;-85
2023/08/24 04:21:43;;;;;;;0.80;0.80;;;;;;;;;;5073321;28;20198;-85
2023/08/24 04:24:12;;;;;;;2.20;1.93;;;;;;;;;;5072777;28;20219;-85
2023/08/24 04:26:43;;;;;;;0.80;0.80;;;;;;;;;;5072106;28;20206;-85
2023/08/24 04:29:11;;;;;;;0.40;0.40;;;;;;;;;;5072983;28;20202;-85
2023/08/24 04:31:42;;;;;;;0.63;0.63;;;;;;;;;;5072479;28;20231;-85
2023/08/24 04:34:11;;;;;;;2.17;2.07;;;;;;;;;;5072963;28;20444;-85
2023/08/24 04:36:39;;;;;;;3.40;2.53;;;;;;;;;;5072021;28;20201;-85
2023/08/24 04:39:10;;;;;;;2.37;2.10;;;;;;;;;;5072771;28;20205;-90
2023/08/24 04:41:38;;;;;;;2.97;2.07;;;;;;;;;;5072492;28;20198;-89
2023/08/24 04:44:08;;;;;;;1.83;1.73;;;;;;;;;;5072492;28;20233;-88
2023/08/24 04:46:36;;;;;;;0.43;0.43;;;;;;;;;;5072669;28;20237;-89
2023/08/24 04:49:05;;;;;;;0.97;0.97;;;;;;;;;;5072971;28;20201;-88
2023/08/24 04:51:33;;;;;;;2.60;2.33;;;;;;;;;;5072082;28;20243;-89
2023/08/24 04:54:02;;;;;;;4.80;2.03;;;;;;;;;;5071668;28;20271;-88
2023/08/24 04:56:32;;;;;;;2.23;2.13;;;;;;;;;;5072607;28;20201;-89
2023/08/24 04:59:02;;;;;;;8.70;2.97;;;;;;;;;;5072139;28;20197;-88
2023/08/24 05:01:31;;;;;;;2.23;2.13;;;;;;;;;;5071696;28;20260;-89
2023/08/24 05:03:59;;;;;;;1.70;1.50;;;;;;;;;;5072135;28;20198;-89
2023/08/24 05:06:28;;;;;;;4.53;1.77;;;;;;;;;;5072377;28;20201;-89
2023/08/24 05:08:56;;;;;;;3.80;1.80;;;;;;;;;;5071993;28;20214;-89
2023/08/24 05:11:26;;;;;;;3.10;2.83;;;;;;;;;;5071521;28;20217;-89
2023/08/24 05:13:56;;;;;;;5.93;3.50;;;;;;;;;;5072124;28;20221;-89
2023/08/24 05:16:24;;;;;;;2.97;2.50;;;;;;;;;;5072297;28;20255;-89
2023/08/24 05:18:53;;;;;;;4.80;4.10;;;;;;;;;;5071656;28;20193;-89
2023/08/24 05:21:21;;;;;;;6.60;3.97;;;;;;;;;;5071506;28;20194;-89
2023/08/24 05:23:50;;;;;;;3.63;3.27;;;;;;;;;;5072120;28;20198;-89
2023/08/24 05:26:22;;;;;;;8.43;1.80;;;;;;;;;;5072482;28;20212;-89
2023/08/24 05:28:51;;;;;;;26.33;2.83;;;;;;;;;;5072511;28;20205;-89
2023/08/24 05:31:21;;;;;;;7.57;2.60;;;;;;;;;;5072470;28;20214;-89
2023/08/24 05:33:49;;;;;;;3.17;2.43;;;;;;;;;;5073227;28;20235;-89
2023/08/24 05:36:18;;;;;;;0.50;0.50;;;;;;;;;;5074149;28;20216;-90
2023/08/24 05:38:47;;;;;;;2.73;2.53;;;;;;;;;;5074947;28;20209;-90
2023/08/24 05:41:34;;;;;;;6.43;3.03;;;;;;;;;;5075848;28;20203;-91
2023/08/24 05:44:02;;;;;;;10.13;1.93;;;;;;;;;;5075136;28;20311;-88
2023/08/24 05:46:32;;;;;;;3.07;2.77;;;;;;;;;;5074872;28;20245;-89
2023/08/24 05:49:01;;;;;;;4.13;2.57;;;;;;;;;;5076810;28;20206;-90
2023/08/24 05:51:30;;;;;;;3.97;3.43;;;;;;;;;;5077560;28;20248;-89
2023/08/24 05:53:58;;;;;;;3.13;2.83;;;;;;;;;;5076072;28;20218;-90
2023/08/24 05:56:27;;;;;;;4.10;3.43;;;;;;;;;;5076791;28;20186;-89
2023/08/24 05:58:55;;;;;;;0.80;0.80;;;;;;;;;;5075532;28;20320;-90
2023/08/24 06:01:24;;;;;;;2.50;2.30;;;;;;;;;;5073979;28;20202;-91
2023/08/24 06:03:54;;;;;;;4.03;2.50;;;;;;;;;;5072742;28;20195;-89
2023/08/24 06:06:23;;;;;;;1.37;1.27;;;;;;;;;;5074257;28;20202;-89
2023/08/24 06:08:51;;;;;;;0.77;0.77;;;;;;;;;;5073142;28;20230;-90
2023/08/24 06:11:20;;;;;;;4.30;2.47;;;;;;;;;;5072953;28;20195;-89
2023/08/24 06:13:53;;;;;;;1.77;1.60;;;;;;;;;;5073253;28;20215;-90
2023/08/24 06:16:22;;;;;;;18.00;4.03;;;;;;;;;;5073643;28;20261;-88
2023/08/24 06:18:50;;;;;;;2.70;2.47;;;;;;;;;;5073293;28;20201;-89
2023/08/24 06:21:20;;;;;;;2.87;1.93;;;;;;;;;;5072150;28;20200;-89
2023/08/24 06:23:49;;;;;;;1.23;0.83;;;;;;;;;;5072446;28;20205;-90
2023/08/24 06:26:18;;;;;;;6.53;5.23;;;;;;;;;;5072797;28;20197;-90
2023/08/24 06:28:47;;;;;;;1.43;1.37;;;;;;;;;;5072537;28;20210;-90
2023/08/24 06:31:17;;;;;;;2.73;2.13;;;;;;;;;;5071968;28;20338;-89
2023/08/24 06:33:45;;;;;;;0.40;0.40;;;;;;;;;;5075629;28;20223;-90
2023/08/24 06:36:14;;;;;;;8.80;8.30;;;;;;;;;;5083657;28;20196;-91
2023/08/24 06:38:45;;;;;;;3.80;2.23;;;;;;;;;;5084213;28;20205;-87
2023/08/24 06:41:14;;;;;;;2.83;2.27;;;;;;;;;;5068509;28;20201;-91
2023/08/24 06:43:43;;;;;;;3.43;3.13;;;;;;;;;;5082071;28;20225;-92
2023/08/24 06:46:11;;;;;;;2.07;1.93;;;;;;;;;;5083072;28;20202;-93
2023/08/24 06:48:41;;;;;;;2.93;2.17;;;;;;;;;;5084800;28;20204;-93
2023/08/24 06:51:11;;;;;;;6.13;2.43;;;;;;;;;;5085295;28;20218;-93
2023/08/24 06:53:42;;;;;;;1.67;1.40;;;;;;;;;;5067245;28;20210;-91
2023/08/24 06:56:12;;;;;;;2.93;2.57;;;;;;;;;;5083702;28;20190;-92
2023/08/24 06:58:41;;;;;;;2.83;2.37;;;;;;;;;;5083367;28;20195;-90
2023/08/24 07:01:10;;;;;;;3.27;2.50;;;;;;;;;;5082417;28;20209;-93
2023/08/24 07:03:39;;;;;;;6.83;4.07;;;;;;;;;;5083887;28;20209;-92
2023/08/24 07:06:08;;;;;;;1.57;1.37;;;;;;;;;;5083799;28;20235;-92
2023/08/24 07:08:37;;;;;;;6.67;3.83;;;;;;;;;;5074953;28;20202;-83
2023/08/24 07:11:05;;;;;;;1.70;1.33;;;;;;;;;;5074596;28;20262;-82
2023/08/24 07:13:35;;;;;;;3.97;3.20;;;;;;;;;;5073972;28;20319;-84
2023/08/24 07:16:04;;;;;;;2.33;2.17;;;;;;;;;;5074584;28;20244;-84
2023/08/24 07:18:33;;;;;;;4.33;3.60;;;;;;;;;;5074528;28;20201;-83
2023/08/24 07:21:01;;;;;;;3.17;2.57;;;;;;;;;;5074200;28;20289;-83
2023/08/24 07:23:30;;;;;;;9.53;4.33;;;;;;;;;;5073386;28;20200;-84
2023/08/24 07:25:58;;;;;;;6.07;3.20;;;;;;;;;;5073785;28;20189;-83
2023/08/24 07:28:27;;;;;;;3.77;3.40;;;;;;;;;;5073658;28;20198;-83
2023/08/24 07:30:57;;;;;;;4.10;3.20;;;;;;;;;;5073731;28;20210;-84
2023/08/24 07:33:26;;;;;;;3.53;3.20;;;;;;;;;;5073617;28;20294;-83
2023/08/24 07:35:54;;;;;;;3.13;2.77;;;;;;;;;;5073894;28;20202;-83
2023/08/24 07:38:23;;;;;;;5.03;4.00;;;;;;;;;;5073817;28;20211;-84
2023/08/24 07:40:52;;;;;;;4.70;3.73;;;;;;;;;;5073076;28;20199;-83
2023/08/24 07:43:21;;;;;;;4.47;2.60;;;;;;;;;;5073858;28;20198;-83
2023/08/24 07:45:49;;;;;;;9.07;4.90;;;;;;;;;;5073199;28;20220;-84
2023/08/24 07:48:19;;;;;;;3.80;3.10;;;;;;;;;;5073644;28;20242;-83
2023/08/24 07:50:48;;;;;;;5.60;4.10;;;;;;;;;;5072925;28;20224;-84
2023/08/24 07:53:18;;;;;;;5.83;4.60;;;;;;;;;;5073669;28;20211;-86
2023/08/24 07:55:47;;;;;;;5.97;4.67;;;;;;;;;;5077200;28;20234;-91
2023/08/24 07:58:16;;;;;;;3.53;3.17;;;;;;;;;;5080388;28;20243;-90
2023/08/24 08:00:45;;;;;;;9.50;5.33;;;;;;;;;;5074431;28;20220;-91
2023/08/24 08:03:13;;;;;;;6.10;3.67;;;;;;;;;;5074916;28;20212;-92
2023/08/24 08:05:44;;;;;;;3.77;3.37;;;;;;;;;;5074087;28;20216;-91
2023/08/24 08:08:12;;;;;;;7.43;3.80;;;;;;;;;;5073836;28;20201;-91
2023/08/24 08:10:41;;;;;;;5.27;3.93;;;;;;;;;;5074373;28;20209;-91
2023/08/24 08:13:11;;;;;;;4.00;2.83;;;;;;;;;;5073937;28;20227;-84
2023/08/24 08:15:39;;;;;;;10.00;5.27;;;;;;;;;;5072706;28;20221;-84
2023/08/24 08:18:08;;;;;;;6.17;2.93;;;;;;;;;;5072738;28;20205;-85
2023/08/24 08:20:37;;;;;;;3.50;2.50;;;;;;;;;;5072884;28;20302;-84
2023/08/24 08:23:08;;;;;;;0.97;0.97;;;;;;;;;;5072671;28;20200;-84
2023/08/24 08:25:37;;;;;;;3.63;3.27;;;;;;;;;;5072774;28;20205;-85
2023/08/24 08:28:06;;;;;;;6.20;3.87;;;;;;;;;;5072749;28;20231;-84
2023/08/24 08:30:34;;;;;;;7.63;3.57;;;;;;;;;;5072173;28;20186;-84
2023/08/24 08:33:04;;;;;;;1.53;1.43;;;;;;;;;;5072889;28;20198;-84
2023/08/24 08:35:33;;;;;;;3.47;3.17;;;;;;;;;;5072727;28;20256;-84
2023/08/24 08:38:01;;;;;;;6.03;3.17;;;;;;;;;;5073133;28;20200;-85
2023/08/24 08:40:32;;;;;;;6.10;3.53;;;;;;;;;;5072712;28;20207;-84
2023/08/24 08:43:00;;;;;;;8.87;5.17;;;;;;;;;;5072045;28;20214;-84
2023/08/24 08:45:29;;;;;;;14.67;6.40;;;;;;;;;;5072196;28;20204;-91
2023/08/24 08:47:59;;;;;;;2.33;2.10;;;;;;;;;;5074096;28;20319;-91
2023/08/24 08:50:29;;;;;;;4.03;3.03;;;;;;;;;;5074343;28;20196;-90
2023/08/24 08:52:59;;;;;;;5.43;2.97;;;;;;;;;;5075595;28;20200;-91
2023/08/24 08:55:27;;;;;;;0.90;0.87;;;;;;;;;;5073900;28;20230;-91
2023/08/24 08:57:58;;;;;;;6.47;4.43;;;;;;;;;;5075000;28;20211;-90
2023/08/24 09:00:27;;;;;;;4.27;3.87;;;;;;;;;;5074566;28;20215;-90
2023/08/24 09:02:57;;;;;;;6.87;4.70;;;;;;;;;;5075119;28;20212;-89
2023/08/24 09:05:26;;;;;;;6.00;4.47;;;;;;;;;;5074995;28;20215;-91
2023/08/24 09:07:56;;;;;;;3.87;3.57;;;;;;;;;;5075612;28;20208;-91
2023/08/24 09:10:25;;;;;;;2.93;2.47;;;;;;;;;;5074924;28;20204;-91
2023/08/24 09:12:54;;;;;;;3.80;2.43;;;;;;;;;;5075250;28;20211;-92
2023/08/24 09:15:27;;;;;;;6.87;5.90;;;;;;;;;;5074986;28;20230;-88
2023/08/24 09:17:57;;;;;;;4.60;4.00;;;;;;;;;;5074275;28;20203;-89
2023/08/24 09:20:29;;;;;;;5.57;3.50;;;;;;;;;;5073732;28;20230;-88
2023/08/24 09:22:58;;;;;;;2.57;2.37;;;;;;;;;;5073641;28;20203;-89
2023/08/24 09:25:26;;;;;;;3.23;2.93;;;;;;;;;;5073934;28;20204;-89
2023/08/24 09:27:58;;;;;;;3.23;1.13;;;;;;;;;;5073225;28;20270;-88
2023/08/24 09:30:32;;;;;;;4.87;3.80;;;;;;;;;;5073680;28;20208;-88
2023/08/24 09:33:04;;;;;;;0.63;0.63;;;;;;;;;;5074328;28;20271;-89
2023/08/24 09:35:36;;;;;;;3.60;1.13;;;;;;;;;;5073283;28;20228;-88
2023/08/24 09:38:17;;;;;;;3.10;1.70;;;;;;;;;;5073939;28;20290;-90
2023/08/24 09:40:48;;;;;;;0.87;0.83;;;;;;;;;;5073331;28;20196;-89
2023/08/24 09:43:16;;;;;;;3.80;1.60;;;;;;;;;;5073429;28;20210;-88
2023/08/24 09:45:53;;;;;;;3.40;2.80;;;;;;;;;;5072825;28;20199;-89
2023/08/24 09:48:21;;;;;;;0.67;0.67;;;;;;;;;;5073117;28;20238;-90
2023/08/24 09:50:51;;;;;;;4.23;3.43;;;;;;;;;;5072626;28;20223;-89
2023/08/24 09:53:20;;;;;;;1.33;1.33;;;;;;;;;;5072565;28;20192;-89
2023/08/24 09:55:51;;;;;;;0.70;0.70;;;;;;;;;;5072239;28;20314;-88
2023/08/24 09:58:20;;;;;;;0.60;0.60;;;;;;;;;;5072777;28;20204;-88
2023/08/24 10:00:48;;;;;;;0.33;0.33;;;;;;;;;;5072391;28;20224;-88
2023/08/24 10:03:21;;;;;;;0.40;0.40;;;;;;;;;;5071568;28;20216;-89
2023/08/24 10:05:53;;;;;;;0.30;0.30;;;;;;;;;;5072472;28;20293;-90
2023/08/24 10:08:30;;;;;;;1.27;1.27;;;;;;;;;;5075132;28;20268;-89
2023/08/24 10:10:59;;;;;;;2.33;1.60;;;;;;;;;;5077186;28;20200;-89
2023/08/24 10:13:44;;;;;;;0.40;0.40;;;;;;;;;;5076752;28;20207;-87
2023/08/24 10:16:14;;;;;;;0.47;0.47;;;;;;;;;;5076081;28;20248;-87
2023/08/24 10:18:44;;;;;;;0.20;0.20;;;;;;;;;;5076441;28;20314;-88
2023/08/24 10:21:13;;;;;;;0.50;0.50;;;;;;;;;;5076752;28;20257;-89
2023/08/24 10:23:41;;;;;;;1.53;1.53;;;;;;;;;;5082532;28;20251;-90
2023/08/24 10:26:12;;;;;;;19.80;13.03;;;;;;;;;;5087091;28;20202;-91
2023/08/24 10:28:42;;;;;;;7.00;5.87;;;;;;;;;;5085750;28;20255;-86
2023/08/24 10:31:11;;;;;;;0.30;0.30;;;;;;;;;;5076335;28;20224;-87
2023/08/24 10:33:40;;;;;;;5.53;3.97;;;;;;;;;;5076765;28;20194;-87
2023/08/24 10:36:11;;;;;;;0.30;0.30;;;;;;;;;;5076066;28;20308;-87
2023/08/24 10:38:42;;;;;;;0.30;0.30;;;;;;;;;;5075354;28;20238;-88
2023/08/24 10:41:13;;;;;;;0.30;0.30;;;;;;;;;;5076356;28;20288;-88
2023/08/24 10:43:49;;;;;;;0.20;0.20;;;;;;;;;;5076583;28;20213;-87
2023/08/24 10:46:18;;;;;;;0.30;0.30;;;;;;;;;;5075613;28;20249;-87
2023/08/24 10:49:02;;;;;;;0.30;0.30;;;;;;;;;;5076051;28;20375;-88
2023/08/24 10:51:32;;;;;;;0.20;0.20;;;;;;;;;;5075501;28;20219;-87
2023/08/24 10:54:02;;;;;;;0.30;0.30;;;;;;;;;;5075615;28;20207;-87
2023/08/24 10:56:35;;;;;;;0.30;0.30;;;;;;;;;;5075320;28;20247;-87
2023/08/24 10:59:13;;;;;;;0.30;0.30;;;;;;;;;;5075445;28;20294;-87
2023/08/24 11:01:42;;;;;;;0.30;0.30;;;;;;;;;;5075775;28;20199;-87
2023/08/24 11:04:13;;;;;;;0.30;0.30;;;;;;;;;;5075152;28;20240;-88
2023/08/24 11:07:02;;;;;;;0.40;0.40;;;;;;;;;;5075750;28;20226;-87
2023/08/24 11:09:46;;;;;;;0.30;0.30;;;;;;;;;;5050669;28;20209;-87
2023/08/24 11:12:19;;;;;;;0.30;0.30;;;;;;;;;;5075630;28;20258;-87
2023/08/24 11:14:54;;;;;;;0.30;0.30;;;;;;;;;;5075239;28;20247;-87
2023/08/24 11:17:23;;;;;;;0.30;0.30;;;;;;;;;;5075043;28;20214;-87
2023/08/24 11:19:52;;;;;;;0.30;0.30;;;;;;;;;;5074753;28;20225;-87
2023/08/24 11:22:23;;;;;;;0.30;0.30;;;;;;;;;;5075171;28;20200;-87
2023/08/24 11:24:52;;;;;;;0.30;0.30;;;;;;;;;;5074895;28;20208;-86
2023/08/24 11:27:23;;;;;;;0.30;0.30;;;;;;;;;;5074941;28;20190;-87
2023/08/24 11:29:59;;;;;;;0.30;0.30;;;;;;;;;;5075272;28;20205;-87
2023/08/24 11:32:28;;;;;;;0.30;0.30;;;;;;;;;;5075115;28;20276;-86
2023/08/24 11:34:56;;;;;;;0.30;0.30;;;;;;;;;;5074721;28;20210;-86
2023/08/24 11:37:25;;;;;;;0.20;0.20;;;;;;;;;;5074128;28;20220;-86
2023/08/24 11:39:54;;;;;;;0.30;0.30;;;;;;;;;;5074642;28;20212;-87
2023/08/24 11:42:24;;;;;;;0.30;0.30;;;;;;;;;;5074576;28;20199;-86
2023/08/24 11:44:52;;;;;;;0.30;0.30;;;;;;;;;;5074667;28;20200;-87
2023/08/24 11:47:23;;;;;;;0.20;0.20;;;;;;;;;;5074541;28;20270;-87
2023/08/24 11:49:51;;;;;;;0.30;0.30;;;;;;;;;;5074148;28;20226;-87
2023/08/24 11:52:20;;;;;;;0.57;0.57;;;;;;;;;;5073835;28;20224;-86
2023/08/24 11:54:48;;;;;;;0.30;0.30;;;;;;;;;;5074565;28;20207;-86
2023/08/24 11:57:17;;;;;;;0.27;0.27;;;;;;;;;;5074558;28;20263;-87
2023/08/24 11:59:48;;;;;;;0.23;0.23;;;;;;;;;;5074368;28;20203;-87
2023/08/24 12:02:17;;;;;;;0.30;0.30;;;;;;;;;;5074627;28;20199;-86
2023/08/24 12:04:46;;;;;;;0.20;0.20;;;;;;;;;;5074812;28;20311;-87
2023/08/24 12:07:14;;;;;;;0.20;0.20;;;;;;;;;;5073520;28;20292;-86
2023/08/24 12:09:43;;;;;;;0.20;0.20;;;;;;;;;;5074589;28;20211;-86
2023/08/24 12:12:15;;;;;;;0.20;0.20;;;;;;;;;;5074003;28;20311;-86
2023/08/24 12:14:43;;;;;;;0.20;0.20;;;;;;;;;;5075057;28;20209;-87
2023/08/24 12:17:14;;;;;;;0.20;0.20;;;;;;;;;;5073944;28;20314;-86
2023/08/24 12:19:44;;;;;;;0.20;0.20;;;;;;;;;;5074029;28;20239;-87
2023/08/24 12:22:16;;;;;;;0.20;0.20;;;;;;;;;;5074003;28;20203;-86
2023/08/24 12:24:46;;;;;;;0.20;0.20;;;;;;;;;;5074169;28;20234;-86
2023/08/24 12:27:19;;;;;;;0.20;0.20;;;;;;;;;;5074379;28;20203;-86
2023/08/24 12:29:48;;;;;;;0.20;0.20;;;;;;;;;;5073218;28;20269;-85
2023/08/24 12:32:22;;;;;;;0.20;0.20;;;;;;;;;;5073313;28;20208;-85
2023/08/24 12:34:52;;;;;;;0.20;0.20;;;;;;;;;;5073291;28;20201;-85
2023/08/24 12:37:20;;;;;;;0.20;0.20;;;;;;;;;;5073412;28;20611;-86
2023/08/24 12:39:49;;;;;;;0.20;0.20;;;;;;;;;;5073243;28;20202;-86
2023/08/24 12:42:17;;;;;;;0.20;0.20;;;;;;;;;;5072568;28;20465;-85
2023/08/24 12:44:46;;;;;;;0.20;0.20;;;;;;;;;;5073567;28;20220;-85
2023/08/24 12:47:14;;;;;;;0.20;0.20;;;;;;;;;;5073772;28;20322;-86
2023/08/24 12:49:44;;;;;;;0.20;0.20;;;;;;;;;;5073630;28;20209;-85
2023/08/24 12:52:13;;;;;;;0.20;0.20;;;;;;;;;;5073163;28;20231;-85
2023/08/24 12:54:41;;;;;;;0.20;0.20;;;;;;;;;;5073711;28;20206;-85
2023/08/24 12:57:13;;;;;;;0.20;0.20;;;;;;;;;;5073255;28;20218;-84
2023/08/24 12:59:42;;;;;;;0.20;0.20;;;;;;;;;;5073330;28;20309;-85
2023/08/24 13:02:10;;;;;;;0.20;0.20;;;;;;;;;;5073457;28;20203;-85
2023/08/24 13:04:54;;;;;;;0.20;0.20;;;;;;;;;;5072950;28;20206;-85
2023/08/24 13:07:23;;;;;;;0.20;0.20;;;;;;;;;;5074709;28;20248;-85
2023/08/24 13:09:51;;;;;;;0.63;0.63;;;;;;;;;;5073819;28;20215;-84
2023/08/24 13:12:22;;;;;;;0.20;0.20;;;;;;;;;;5072814;28;20210;-84
2023/08/24 13:14:50;;;;;;;0.20;0.20;;;;;;;;;;5073196;28;20200;-86
2023/08/24 13:17:19;;;;;;;0.20;0.20;;;;;;;;;;5072646;28;20313;-86
2023/08/24 13:19:48;;;;;;;0.20;0.20;;;;;;;;;;5073132;28;20296;-86
2023/08/24 13:22:18;;;;;;;0.20;0.20;;;;;;;;;;5072495;28;20213;-86
2023/08/24 13:24:47;;;;;;;0.20;0.20;;;;;;;;;;5072493;28;20204;-86
2023/08/24 13:27:16;;;;;;;0.20;0.20;;;;;;;;;;5071829;28;20204;-86
2023/08/24 13:29:44;;;;;;;0.20;0.20;;;;;;;;;;5072276;28;20207;-85
2023/08/24 13:32:13;;;;;;;0.20;0.20;;;;;;;;;;5072087;28;20204;-86
2023/08/24 13:34:43;;;;;;;0.20;0.20;;;;;;;;;;5072342;28;20196;-86
2023/08/24 13:37:11;;;;;;;0.20;0.20;;;;;;;;;;5072678;28;20216;-88
2023/08/24 13:39:41;;;;;;;0.20;0.20;;;;;;;;;;5072027;28;20206;-88
2023/08/24 13:42:09;;;;;;;0.20;0.20;;;;;;;;;;5071916;28;20242;-87
2023/08/24 13:44:38;;;;;;;0.20;0.20;;;;;;;;;;5071800;28;20205;-88
2023/08/24 13:47:07;;;;;;;0.20;0.20;;;;;;;;;;5072789;28;20236;-90
2023/08/24 13:49:36;;;;;;;0.20;0.20;;;;;;;;;;5074503;28;20211;-89
2023/08/24 13:52:08;;;;;;;0.17;0.17;;;;;;;;;;5074084;28;20227;-90
2023/08/24 13:54:37;;;;;;;0.20;0.20;;;;;;;;;;5074302;28;20209;-91
2023/08/24 13:57:07;;;;;;;0.20;0.20;;;;;;;;;;5074432;28;20240;-91
2023/08/24 13:59:36;;;;;;;0.20;0.20;;;;;;;;;;5075567;28;20204;-91
2023/08/24 14:02:06;;;;;;;0.20;0.20;;;;;;;;;;5074395;28;20189;-91
2023/08/24 14:04:34;;;;;;;0.20;0.20;;;;;;;;;;5076348;28;20296;-91
2023/08/24 14:07:03;;;;;;;0.20;0.20;;;;;;;;;;5076321;28;20244;-91
2023/08/24 14:09:32;;;;;;;0.20;0.20;;;;;;;;;;5075433;28;20255;-92
2023/08/24 14:12:01;;;;;;;0.20;0.20;;;;;;;;;;5074964;28;20299;-91
2023/08/24 14:14:34;;;;;;;0.20;0.20;;;;;;;;;;5075976;28;20216;-87
2023/08/24 14:17:05;;;;;;;0.20;0.20;;;;;;;;;;5072296;28;20208;-87
2023/08/24 14:19:34;;;;;;;0.20;0.20;;;;;;;;;;5075164;28;20198;-90
2023/08/24 14:22:03;;;;;;;0.20;0.20;;;;;;;;;;5075530;28;20205;-91
2023/08/24 14:24:34;;;;;;;0.20;0.20;;;;;;;;;;5076164;28;20227;-91
2023/08/24 14:27:03;;;;;;;0.20;0.20;;;;;;;;;;5079736;28;20212;-93
2023/08/24 14:29:33;;;;;;;0.20;0.20;;;;;;;;;;5078033;28;20224;-92
2023/08/24 14:32:04;;;;;;;0.23;0.23;;;;;;;;;;5073899;28;20197;-91
2023/08/24 14:34:32;;;;;;;0.20;0.20;;;;;;;;;;5071877;28;20209;-91
2023/08/24 14:37:04;;;;;;;0.20;0.20;;;;;;;;;;5072195;28;20201;-88
2023/08/24 14:39:32;;;;;;;0.20;0.20;;;;;;;;;;5071909;28;20200;-91
2023/08/24 14:42:02;;;;;;;0.20;0.20;;;;;;;;;;5071191;28;20221;-92
2023/08/24 14:44:33;;;;;;;0.20;0.20;;;;;;;;;;5071359;28;20197;-91
2023/08/24 14:47:02;;;;;;;0.20;0.20;;;;;;;;;;5069995;28;20270;-90
2023/08/24 14:49:31;;;;;;;0.20;0.20;;;;;;;;;;5071047;28;20249;-90
2023/08/24 14:51:59;;;;;;;0.20;0.20;;;;;;;;;;5070829;28;20309;-90
2023/08/24 14:54:28;;;;;;;0.20;0.20;;;;;;;;;;5072135;28;20194;-90
2023/08/24 14:56:56;;;;;;;0.20;0.20;;;;;;;;;;5074193;28;20205;-90